createdAt,value
2019-03-23T00:00:51.296Z,100.00
2019-03-23T00:03:20.875Z,100.00
2019-03-23T00:05:49.793Z,100.00
2019-03-23T00:08:18.722Z,100.00
2019-03-23T00:10:47.968Z,100.00
2019-03-23T00:13:16.903Z,100.00
2019-03-23T00:15:45.808Z,100.00
2019-03-23T00:18:14.771Z,100.00
2019-03-23T00:20:44.057Z,100.00
2019-03-23T00:23:13.102Z,100.00
2019-03-23T00:25:42.415Z,100.00
2019-03-23T00:28:11.410Z,100.00
2019-03-23T00:30:40.399Z,100.00
2019-03-23T00:33:09.788Z,100.00
2019-03-23T00:35:38.730Z,100.00
2019-03-23T00:38:07.966Z,100.00
2019-03-23T00:40:37.327Z,100.00
2019-03-23T00:43:06.499Z,100.00
2019-03-23T00:45:35.920Z,100.00
2019-03-23T00:48:04.888Z,100.00
2019-03-23T00:50:33.795Z,100.00
2019-03-23T00:53:02.911Z,100.00
2019-03-23T00:55:31.915Z,100.00
2019-03-23T00:58:00.848Z,100.00
2019-03-23T01:00:30.030Z,100.00
2019-03-23T01:02:59.305Z,100.00
2019-03-23T01:05:28.300Z,100.00
2019-03-23T01:07:57.243Z,100.00
2019-03-23T01:10:26.596Z,100.00
2019-03-23T01:12:55.887Z,100.00
2019-03-23T01:15:25.072Z,100.00
2019-03-23T01:17:54.545Z,100.00
2019-03-23T01:20:24.337Z,100.00
2019-03-23T01:22:53.487Z,100.00
2019-03-23T01:25:23.516Z,100.00
2019-03-23T01:27:52.376Z,100.00
2019-03-23T01:30:21.409Z,100.00
2019-03-23T01:32:50.596Z,100.00
2019-03-23T01:35:19.504Z,100.00
2019-03-23T01:37:48.475Z,100.00
2019-03-23T01:40:17.688Z,100.00
2019-03-23T01:42:46.572Z,100.00
2019-03-23T01:45:15.635Z,100.00
2019-03-23T01:47:44.973Z,100.00
2019-03-23T01:50:14.061Z,100.00
2019-03-23T01:52:43.034Z,100.00
2019-03-23T01:55:12.352Z,100.00
2019-03-23T01:57:41.274Z,100.00
2019-03-23T02:00:11.736Z,100.00
2019-03-23T02:02:41.014Z,100.00
2019-03-23T02:05:10.132Z,100.00
2019-03-23T02:07:39.180Z,100.00
2019-03-23T02:10:09.211Z,100.00
2019-03-23T02:12:38.248Z,100.00
2019-03-23T02:15:08.774Z,100.00
2019-03-23T02:17:38.049Z,100.00
2019-03-23T02:20:08.211Z,100.00
2019-03-23T02:22:37.398Z,100.00
2019-03-23T02:25:07.144Z,100.00
2019-03-23T02:27:36.127Z,100.00
2019-03-23T02:30:06.416Z,100.00
2019-03-23T02:32:35.546Z,100.00
2019-03-23T02:35:05.174Z,100.00
2019-03-23T02:37:34.232Z,100.00
2019-03-23T02:40:03.775Z,100.00
2019-03-23T02:42:32.781Z,100.00
2019-03-23T02:45:04.008Z,100.00
2019-03-23T02:47:32.899Z,100.00
2019-03-23T02:50:02.034Z,100.00
2019-03-23T02:52:30.956Z,100.00
2019-03-23T02:54:59.899Z,100.00
2019-03-23T02:57:29.099Z,100.00
2019-03-23T02:59:58.080Z,100.00
2019-03-23T03:02:27.045Z,100.00
2019-03-23T03:04:56.111Z,100.00
2019-03-23T03:07:24.961Z,100.00
2019-03-23T03:09:54.961Z,100.00
2019-03-23T03:12:23.863Z,100.00
2019-03-23T03:14:52.961Z,100.00
2019-03-23T03:17:21.970Z,100.00
2019-03-23T03:19:50.846Z,100.00
2019-03-23T03:22:21.673Z,100.00
2019-03-23T03:24:50.555Z,100.00
2019-03-23T03:27:19.923Z,100.00
2019-03-23T03:29:48.903Z,100.00
2019-03-23T03:32:17.828Z,100.00
2019-03-23T03:34:47.153Z,100.00
2019-03-23T03:37:16.081Z,100.00
2019-03-23T03:39:45.136Z,100.00
2019-03-23T03:42:14.489Z,100.00
2019-03-23T03:44:45.180Z,100.00
2019-03-23T03:47:14.580Z,100.00
2019-03-23T03:49:43.466Z,100.00
2019-03-23T03:52:12.830Z,100.00
2019-03-23T03:54:41.710Z,100.00
2019-03-23T03:57:10.622Z,100.00
2019-03-23T03:59:39.596Z,100.00
2019-03-23T04:02:08.602Z,100.00
2019-03-23T04:04:37.690Z,100.00
2019-03-23T04:07:06.702Z,100.00
2019-03-23T04:09:36.028Z,100.00
2019-03-23T04:12:05.006Z,100.00
2019-03-23T04:14:34.197Z,100.00
2019-03-23T04:17:03.318Z,100.00
2019-03-23T04:19:32.313Z,100.00
2019-03-23T04:22:01.159Z,100.00
2019-03-23T04:24:30.196Z,100.00
2019-03-23T04:26:59.159Z,100.00
2019-03-23T04:29:28.225Z,100.00
2019-03-23T04:31:57.142Z,100.00
2019-03-23T04:34:26.471Z,100.00
2019-03-23T04:36:55.371Z,100.00
2019-03-23T04:39:24.753Z,100.00
2019-03-23T04:41:53.820Z,100.00
2019-03-23T04:44:22.721Z,100.00
2019-03-23T04:46:51.610Z,100.00
2019-03-23T04:49:20.796Z,100.00
2019-03-23T04:51:49.838Z,100.00
2019-03-23T04:54:18.783Z,100.00
2019-03-23T04:56:47.807Z,100.00
2019-03-23T04:59:16.805Z,100.00
2019-03-23T05:01:45.814Z,100.00
2019-03-23T05:04:14.929Z,100.00
2019-03-23T05:06:44.351Z,100.00
2019-03-23T05:09:13.239Z,100.00
2019-03-23T05:11:42.522Z,100.00
2019-03-23T05:14:11.527Z,100.00
2019-03-23T05:16:40.801Z,100.00
2019-03-23T05:19:09.902Z,100.00
2019-03-23T05:21:38.847Z,100.00
2019-03-23T05:24:07.762Z,100.00
2019-03-23T05:26:36.708Z,100.00
2019-03-23T05:29:06.105Z,100.00
2019-03-23T05:31:35.126Z,100.00
2019-03-23T05:34:04.045Z,100.00
2019-03-23T05:36:32.922Z,100.00
2019-03-23T05:39:03.335Z,100.00
2019-03-23T05:41:32.419Z,100.00
2019-03-23T05:44:01.441Z,100.00
2019-03-23T05:46:30.328Z,100.00
2019-03-23T05:48:59.326Z,100.00
2019-03-23T05:51:29.483Z,100.00
2019-03-23T05:53:58.397Z,100.00
2019-03-23T05:56:28.750Z,100.00
2019-03-23T05:58:58.005Z,100.00
2019-03-23T06:01:26.929Z,100.00
2019-03-23T06:03:57.564Z,100.00
2019-03-23T06:06:26.937Z,100.00
2019-03-23T06:08:55.867Z,100.00
2019-03-23T06:11:26.567Z,100.00
2019-03-23T06:13:55.500Z,100.00
2019-03-23T06:16:24.458Z,100.00
2019-03-23T06:18:53.777Z,100.00
2019-03-23T06:21:22.800Z,100.00
2019-03-23T06:23:53.273Z,100.00
2019-03-23T06:26:22.155Z,100.00
2019-03-23T06:28:51.054Z,100.00
2019-03-23T06:31:20.031Z,100.00
2019-03-23T06:33:50.324Z,100.00
2019-03-23T06:36:19.374Z,100.00
2019-03-23T06:38:48.525Z,100.00
2019-03-23T06:41:17.889Z,100.00
2019-03-23T06:43:46.856Z,100.00
2019-03-23T06:46:16.166Z,100.00
2019-03-23T06:48:44.996Z,100.00
2019-03-23T06:51:14.428Z,100.00
2019-03-23T06:53:43.643Z,100.00
2019-03-23T06:56:12.913Z,100.00
2019-03-23T06:58:41.789Z,100.00
2019-03-23T07:01:11.016Z,100.00
2019-03-23T07:03:40.217Z,100.00
2019-03-23T07:06:09.116Z,100.00
2019-03-23T07:08:38.667Z,100.00
2019-03-23T07:11:07.575Z,100.00
2019-03-23T07:13:36.493Z,100.00
2019-03-23T07:16:05.638Z,100.00
2019-03-23T07:18:34.656Z,100.00
2019-03-23T07:21:08.689Z,100.00
2019-03-23T07:23:39.204Z,100.00
2019-03-23T07:26:08.292Z,99.32
2019-03-23T07:28:37.688Z,100.00
2019-03-23T07:31:06.953Z,100.00
2019-03-23T07:33:35.894Z,98.38
2019-03-23T07:36:04.992Z,98.75
2019-03-23T07:38:34.604Z,97.67
2019-03-23T07:41:03.565Z,96.35
2019-03-23T07:43:35.576Z,95.91
2019-03-23T07:46:04.545Z,97.28
2019-03-23T07:48:33.870Z,97.08
2019-03-23T07:51:02.784Z,97.38
2019-03-23T07:53:31.760Z,97.54
2019-03-23T07:56:00.791Z,97.72
2019-03-23T07:58:29.798Z,98.06
2019-03-23T08:00:58.856Z,97.95
2019-03-23T08:03:27.767Z,98.49
2019-03-23T08:05:56.769Z,97.13
2019-03-23T08:08:25.677Z,96.33
2019-03-23T08:10:54.642Z,97.02
2019-03-23T08:13:23.672Z,96.79
2019-03-23T08:15:52.612Z,95.38
2019-03-23T08:18:22.088Z,94.40
2019-03-23T08:20:51.107Z,94.78
2019-03-23T08:23:20.002Z,94.13
2019-03-23T08:25:49.075Z,94.39
2019-03-23T08:28:17.981Z,94.28
2019-03-23T08:30:47.432Z,94.69
2019-03-23T08:33:18.259Z,94.37
2019-03-23T08:35:47.377Z,94.74
2019-03-23T08:38:16.371Z,94.69
2019-03-23T08:40:45.328Z,94.05
2019-03-23T08:43:14.262Z,94.29
2019-03-23T08:45:43.478Z,94.54
2019-03-23T08:48:12.367Z,94.17
2019-03-23T08:50:41.344Z,94.12
2019-03-23T08:53:10.233Z,94.42
2019-03-23T08:55:39.261Z,94.23
2019-03-23T08:58:08.105Z,93.18
2019-03-23T09:00:37.111Z,92.95
2019-03-23T09:03:06.008Z,91.50
2019-03-23T09:05:35.532Z,91.39
2019-03-23T09:08:04.587Z,90.59
2019-03-23T09:10:33.598Z,89.33
2019-03-23T09:13:02.513Z,90.38
2019-03-23T09:15:31.745Z,90.18
2019-03-23T09:18:00.753Z,90.65
2019-03-23T09:20:29.786Z,91.94
2019-03-23T09:22:58.706Z,90.45
2019-03-23T09:25:27.688Z,90.96
2019-03-23T09:27:56.619Z,91.26
2019-03-23T09:30:25.519Z,89.95
2019-03-23T09:32:56.923Z,90.77
2019-03-23T09:35:25.563Z,90.92
2019-03-23T09:37:54.569Z,91.64
2019-03-23T09:40:23.904Z,90.28
2019-03-23T09:42:52.787Z,89.71
2019-03-23T09:45:21.741Z,89.88
2019-03-23T09:47:50.768Z,90.03
2019-03-23T09:50:19.701Z,89.15
2019-03-23T09:52:48.570Z,89.03
2019-03-23T09:55:17.475Z,88.64
2019-03-23T09:57:46.484Z,88.17
2019-03-23T10:00:15.682Z,88.19
2019-03-23T10:02:45.006Z,88.04
2019-03-23T10:05:13.936Z,87.50
2019-03-23T10:07:42.927Z,87.76
2019-03-23T10:10:21.363Z,88.88
2019-03-23T10:12:42.902Z,90.59
2019-03-23T10:15:11.891Z,88.75
2019-03-23T10:17:40.885Z,88.34
2019-03-23T10:20:10.674Z,88.84
2019-03-23T10:22:39.630Z,86.95
2019-03-23T10:25:08.726Z,87.09
2019-03-23T10:27:37.664Z,86.85
2019-03-23T10:30:07.307Z,86.99
2019-03-23T10:32:36.261Z,85.17
2019-03-23T10:35:07.326Z,85.02
2019-03-23T10:37:36.256Z,83.60
2019-03-23T10:40:07.440Z,83.54
2019-03-23T10:42:36.568Z,84.32
2019-03-23T10:45:12.425Z,83.13
2019-03-23T10:47:41.480Z,83.48
2019-03-23T10:50:10.621Z,85.05
2019-03-23T10:52:39.609Z,84.98
2019-03-23T10:55:09.848Z,85.10
2019-03-23T10:57:38.772Z,85.44
2019-03-23T11:00:08.992Z,85.65
2019-03-23T11:02:38.039Z,86.39
2019-03-23T11:05:08.003Z,86.64
2019-03-23T11:07:36.970Z,87.34
2019-03-23T11:10:06.736Z,86.37
2019-03-23T11:12:37.153Z,87.20
2019-03-23T11:15:07.123Z,88.46
2019-03-23T11:17:36.022Z,88.31
2019-03-23T11:20:06.080Z,89.69
2019-03-23T11:22:34.918Z,89.67
2019-03-23T11:25:04.962Z,90.87
2019-03-23T11:27:33.919Z,91.74
2019-03-23T11:30:03.172Z,90.42
2019-03-23T11:32:32.120Z,89.62
2019-03-23T11:35:01.054Z,89.97
2019-03-23T11:37:30.187Z,89.73
2019-03-23T11:39:59.256Z,87.71
2019-03-23T11:42:28.167Z,88.96
2019-03-23T11:44:58.949Z,87.55
2019-03-23T11:47:29.067Z,89.26
2019-03-23T11:49:57.931Z,90.33
2019-03-23T11:52:26.833Z,90.50
2019-03-23T11:54:55.836Z,88.86
2019-03-23T11:57:24.820Z,88.51
2019-03-23T11:59:53.831Z,88.32
2019-03-23T12:02:23.113Z,87.31
2019-03-23T12:04:52.058Z,87.99
2019-03-23T12:07:20.949Z,87.84
2019-03-23T12:09:49.907Z,87.64
2019-03-23T12:12:19.221Z,87.90
2019-03-23T12:14:48.137Z,86.89
2019-03-23T12:17:17.002Z,87.50
2019-03-23T12:19:45.893Z,87.99
2019-03-23T12:22:14.812Z,89.60
2019-03-23T12:24:43.723Z,89.71
2019-03-23T12:27:12.736Z,89.07
2019-03-23T12:29:41.649Z,88.59
2019-03-23T12:32:10.833Z,88.55
2019-03-23T12:34:39.813Z,90.11
2019-03-23T12:37:09.071Z,90.17
2019-03-23T12:39:38.412Z,92.24
2019-03-23T12:42:08.495Z,92.22
2019-03-23T12:44:37.417Z,92.90
2019-03-23T12:47:06.488Z,94.62
2019-03-23T12:49:35.686Z,95.80
2019-03-23T12:52:06.037Z,96.76
2019-03-23T12:54:35.077Z,99.65
2019-03-23T12:57:04.059Z,100.00
2019-03-23T12:59:33.055Z,100.00
2019-03-23T13:02:02.006Z,100.00
2019-03-23T13:04:31.026Z,100.00
2019-03-23T13:06:59.939Z,100.00
2019-03-23T13:09:29.177Z,100.00
2019-03-23T13:11:58.262Z,100.00
2019-03-23T13:14:27.477Z,100.00
2019-03-23T13:16:56.396Z,100.00
2019-03-23T13:19:25.312Z,100.00
2019-03-23T13:21:54.213Z,100.00
2019-03-23T13:24:23.163Z,100.00
2019-03-23T13:26:52.047Z,99.86
2019-03-23T13:29:20.983Z,98.52
2019-03-23T13:31:50.046Z,95.82
2019-03-23T13:34:19.014Z,93.48
2019-03-23T13:36:48.039Z,92.51
2019-03-23T13:39:17.160Z,90.11
2019-03-23T13:41:49.990Z,87.42
2019-03-23T13:44:18.991Z,86.06
2019-03-23T13:46:47.911Z,86.30
2019-03-23T13:49:16.976Z,83.59
2019-03-23T13:51:45.995Z,81.81
2019-03-23T13:54:15.215Z,81.46
2019-03-23T13:56:44.228Z,79.89
2019-03-23T13:59:13.276Z,78.83
2019-03-23T14:02:42.250Z,78.24
2019-03-23T14:05:16.021Z,76.74
2019-03-23T14:07:41.914Z,76.28
2019-03-23T14:10:11.846Z,76.12
2019-03-23T14:12:41.012Z,74.85
2019-03-23T14:15:14.513Z,75.43
2019-03-23T14:17:43.543Z,76.05
2019-03-23T14:20:12.629Z,76.99
2019-03-23T14:22:41.521Z,76.87
2019-03-23T14:25:10.420Z,77.50
2019-03-23T14:27:39.435Z,77.06
2019-03-23T14:30:08.746Z,76.86
2019-03-23T14:32:37.687Z,76.06
2019-03-23T14:35:08.046Z,75.54
2019-03-23T14:37:37.505Z,75.24
2019-03-23T14:40:06.965Z,75.30
2019-03-23T14:42:36.183Z,75.49
2019-03-23T14:45:12.254Z,75.84
2019-03-23T14:47:41.273Z,74.91
2019-03-23T14:50:10.380Z,74.54
2019-03-23T14:52:39.345Z,73.85
2019-03-23T14:55:08.550Z,73.90
2019-03-23T14:57:37.447Z,73.05
2019-03-23T15:00:08.246Z,73.26
2019-03-23T15:02:37.210Z,74.49
2019-03-23T15:05:06.830Z,74.73
2019-03-23T15:07:35.778Z,75.41
2019-03-23T15:10:08.088Z,77.11
2019-03-23T15:12:36.977Z,77.33
2019-03-23T15:15:07.065Z,76.49
2019-03-23T15:17:36.310Z,76.71
2019-03-23T15:20:06.634Z,76.82
2019-03-23T15:22:36.800Z,75.96
2019-03-23T15:25:06.301Z,76.67
2019-03-23T15:27:35.391Z,78.18
2019-03-23T15:30:04.615Z,79.10
2019-03-23T15:32:33.494Z,79.66
2019-03-23T15:35:02.760Z,80.11
2019-03-23T15:37:31.621Z,80.11
2019-03-23T15:40:00.612Z,79.40
2019-03-23T15:42:29.785Z,79.55
2019-03-23T15:45:00.560Z,79.05
2019-03-23T15:47:29.464Z,79.23
2019-03-23T15:49:58.563Z,78.57
2019-03-23T15:52:27.694Z,78.47
2019-03-23T15:54:57.212Z,78.67
2019-03-23T15:57:26.095Z,78.65
2019-03-23T15:59:55.058Z,78.73
2019-03-23T16:02:24.174Z,77.25
2019-03-23T16:04:53.162Z,75.97
2019-03-23T16:07:29.213Z,75.99
2019-03-23T16:09:53.761Z,76.33
2019-03-23T16:12:22.908Z,77.05
2019-03-23T16:14:51.803Z,77.42
2019-03-23T16:17:20.871Z,77.75
2019-03-23T16:19:49.853Z,77.36
2019-03-23T16:22:18.907Z,77.50
2019-03-23T16:24:47.809Z,77.24
2019-03-23T16:27:16.822Z,77.29
2019-03-23T16:29:45.938Z,77.80
2019-03-23T16:32:15.147Z,77.90
2019-03-23T16:34:44.039Z,77.93
2019-03-23T16:37:12.997Z,77.06
2019-03-23T16:39:41.832Z,77.01
2019-03-23T16:42:10.953Z,75.41
2019-03-23T16:44:39.947Z,75.26
2019-03-23T16:47:09.342Z,74.46
2019-03-23T16:49:38.179Z,74.25
2019-03-23T16:52:07.122Z,74.25
2019-03-23T16:54:36.029Z,74.76
2019-03-23T16:57:05.152Z,75.79
2019-03-23T16:59:34.052Z,76.70
2019-03-23T17:02:03.085Z,76.61
2019-03-23T17:04:31.973Z,76.80
2019-03-23T17:07:01.265Z,77.37
2019-03-23T17:09:31.932Z,77.39
2019-03-23T17:12:03.075Z,77.48
2019-03-23T17:14:31.909Z,77.62
2019-03-23T17:17:00.844Z,77.83
2019-03-23T17:19:29.786Z,78.65
2019-03-23T17:21:58.711Z,78.96
2019-03-23T17:24:27.913Z,78.69
2019-03-23T17:26:56.999Z,77.12
2019-03-23T17:29:25.971Z,77.08
2019-03-23T17:31:54.982Z,76.86
2019-03-23T17:34:23.885Z,77.30
2019-03-23T17:36:53.055Z,77.84
2019-03-23T17:39:22.062Z,79.06
2019-03-23T17:41:51.105Z,79.94
2019-03-23T17:44:19.962Z,80.11
2019-03-23T17:46:49.004Z,81.44
2019-03-23T17:49:17.895Z,81.93
2019-03-23T17:51:46.824Z,82.53
2019-03-23T17:54:15.802Z,83.66
2019-03-23T17:56:44.761Z,84.48
2019-03-23T17:59:14.220Z,85.26
2019-03-23T18:01:43.377Z,85.22
2019-03-23T18:04:12.297Z,85.55
2019-03-23T18:06:41.375Z,86.04
2019-03-23T18:09:10.243Z,85.81
2019-03-23T18:11:39.159Z,86.21
2019-03-23T18:14:08.648Z,86.15
2019-03-23T18:16:37.584Z,86.27
2019-03-23T18:19:06.538Z,86.65
2019-03-23T18:21:35.578Z,86.41
2019-03-23T18:24:04.428Z,86.62
2019-03-23T18:26:33.489Z,87.26
2019-03-23T18:29:02.362Z,87.59
2019-03-23T18:31:31.428Z,87.68
2019-03-23T18:34:00.652Z,88.59
2019-03-23T18:36:29.585Z,88.27
2019-03-23T18:38:58.802Z,89.17
2019-03-23T18:41:27.719Z,88.36
2019-03-23T18:43:56.793Z,88.82
2019-03-23T18:46:25.782Z,89.33
2019-03-23T18:48:54.777Z,90.00
2019-03-23T18:51:23.970Z,89.81
2019-03-23T18:53:52.862Z,90.00
2019-03-23T18:56:21.823Z,89.65
2019-03-23T18:58:50.726Z,90.75
2019-03-23T19:01:19.627Z,90.81
2019-03-23T19:03:48.560Z,91.48
2019-03-23T19:06:17.831Z,91.92
2019-03-23T19:08:46.869Z,92.04
2019-03-23T19:11:15.798Z,92.25
2019-03-23T19:13:44.696Z,93.54
2019-03-23T19:16:13.651Z,93.17
2019-03-23T19:18:43.419Z,93.03
2019-03-23T19:21:12.388Z,95.04
2019-03-23T19:23:41.423Z,94.62
2019-03-23T19:26:10.330Z,94.12
2019-03-23T19:28:39.387Z,93.88
2019-03-23T19:31:08.267Z,94.33
2019-03-23T19:33:37.343Z,94.87
2019-03-23T19:36:06.410Z,95.27
2019-03-23T19:38:35.318Z,95.42
2019-03-23T19:41:05.627Z,96.07
2019-03-23T19:43:35.035Z,96.92
2019-03-23T19:46:04.105Z,97.41
2019-03-23T19:48:33.006Z,97.46
2019-03-23T19:51:03.736Z,97.80
2019-03-23T19:53:32.736Z,97.79
2019-03-23T19:56:02.330Z,98.53
2019-03-23T19:58:31.993Z,98.36
2019-03-23T20:01:01.092Z,97.45
2019-03-23T20:03:30.159Z,98.17
2019-03-23T20:05:59.158Z,97.50
2019-03-23T20:08:28.079Z,98.73
2019-03-23T20:10:57.095Z,98.71
2019-03-23T20:13:26.058Z,99.00
2019-03-23T20:15:55.264Z,98.71
2019-03-23T20:18:24.262Z,98.62
2019-03-23T20:20:53.251Z,98.08
2019-03-23T20:23:22.786Z,98.70
2019-03-23T20:25:51.771Z,98.33
2019-03-23T20:28:21.294Z,98.60
2019-03-23T20:30:50.157Z,98.33
2019-03-23T20:33:19.830Z,99.09
2019-03-23T20:35:49.115Z,98.96
2019-03-23T20:38:18.049Z,99.55
2019-03-23T20:40:46.994Z,99.46
2019-03-23T20:43:15.931Z,99.05
2019-03-23T20:45:44.833Z,100.00
2019-03-23T20:48:14.530Z,100.00
2019-03-23T20:50:44.134Z,99.45
2019-03-23T20:53:15.561Z,98.76
2019-03-23T20:55:44.807Z,97.64
2019-03-23T20:58:13.791Z,97.64
2019-03-23T21:00:42.697Z,98.79
2019-03-23T21:03:11.633Z,100.00
2019-03-23T21:05:40.597Z,99.02
2019-03-23T21:08:09.548Z,100.00
2019-03-23T21:10:38.533Z,100.00
2019-03-23T21:13:07.514Z,100.00
2019-03-23T21:15:36.412Z,100.00
2019-03-23T21:18:05.649Z,100.00
2019-03-23T21:20:34.669Z,100.00
2019-03-23T21:23:03.753Z,100.00
2019-03-23T21:25:32.656Z,100.00
2019-03-23T21:28:01.597Z,100.00
2019-03-23T21:30:30.584Z,100.00
2019-03-23T21:32:59.604Z,100.00
2019-03-23T21:35:28.590Z,100.00
2019-03-23T21:37:57.520Z,100.00
2019-03-23T21:40:26.406Z,100.00
2019-03-23T21:42:55.310Z,100.00
2019-03-23T21:45:24.321Z,100.00
2019-03-23T21:47:53.277Z,100.00
2019-03-23T21:50:22.176Z,100.00
2019-03-23T21:52:51.145Z,100.00
2019-03-23T21:55:20.734Z,100.00
2019-03-23T21:57:49.675Z,100.00
2019-03-23T22:00:33.851Z,100.00
2019-03-23T22:03:02.907Z,100.00
2019-03-23T22:05:31.902Z,100.00
2019-03-23T22:08:01.992Z,100.00
2019-03-23T22:10:31.118Z,100.00
2019-03-23T22:13:00.019Z,100.00
2019-03-23T22:15:31.532Z,100.00
2019-03-23T22:18:03.163Z,100.00
2019-03-23T22:20:32.625Z,100.00
2019-03-23T22:23:01.947Z,100.00
2019-03-23T22:25:30.853Z,100.00
2019-03-23T22:27:59.760Z,100.00
2019-03-23T22:30:29.041Z,100.00
2019-03-23T22:32:57.978Z,100.00
2019-03-23T22:35:27.170Z,100.00
2019-03-23T22:37:56.133Z,100.00
2019-03-23T22:40:25.105Z,100.00
2019-03-23T22:42:54.960Z,100.00
2019-03-23T22:45:23.982Z,100.00
2019-03-23T22:47:52.894Z,100.00
2019-03-23T22:50:21.838Z,100.00
2019-03-23T22:52:50.824Z,100.00
2019-03-23T22:55:19.769Z,100.00
2019-03-23T22:57:49.550Z,100.00
2019-03-23T23:00:26.178Z,100.00
2019-03-23T23:02:55.124Z,100.00
2019-03-23T23:05:24.078Z,100.00
2019-03-23T23:07:54.774Z,100.00
2019-03-23T23:10:23.810Z,100.00
2019-03-23T23:12:52.802Z,100.00
2019-03-23T23:15:21.676Z,100.00
2019-03-23T23:17:50.835Z,100.00
2019-03-23T23:20:20.413Z,100.00
2019-03-23T23:22:49.572Z,100.00
2019-03-23T23:25:18.680Z,100.00
2019-03-23T23:27:47.573Z,100.00
2019-03-23T23:30:17.282Z,100.00
2019-03-23T23:32:46.257Z,100.00
2019-03-23T23:35:15.251Z,100.00
2019-03-23T23:37:44.426Z,100.00
2019-03-23T23:40:14.378Z,100.00
2019-03-23T23:42:43.295Z,100.00
2019-03-23T23:45:15.738Z,100.00
2019-03-23T23:47:43.430Z,100.00
2019-03-23T23:50:12.680Z,100.00
2019-03-23T23:52:42.549Z,100.00
2019-03-23T23:55:11.527Z,100.00
2019-03-23T23:57:40.458Z,100.00
